Station: Karijini North  

  Atmospheric Gas Attenuation - ITU Rec 676-11   ----------------- dB/100km -----------------
Date Time Temp RH % AH g/m3 Dew Point Wind Direction Speed kph Gust kph Barometer mB Rainfall Since 9am 24GHz 47GHz 76GHz 122GHz 134GHz 241GHz
08/05 09:20 20.6 30 5.37 2.4 33 41 1021.9 0 12.5 19.8 25.7 66.9 54.0 183.5
08/05 09:10 20.5 31 5.52 2.8 32 41 1021.8 0 12.8 20.0 26.3 68.2 55.7 189.3
08/05 09:00 20.4 30 5.31 2.3 33 48 1021.9 0 12.4 19.7 25.6 66.5 53.5 181.6
08/05 08:50 19.8 32 5.47 2.6 39 44 1021.9 0 12.7 20.1 26.3 68.4 55.6 189.1
08/05 08:40 19.6 32 5.4 2.5 35 44 1021.8 0 12.6 20.0 26.1 67.9 55.0 186.8
08/05 08:30 19.5 33 5.54 2.8 39 52 1021.7 0 12.9 20.2 26.6 69.2 56.6 192.4
08/05 08:20 19.2 33 5.44 2.6 39 46 1021.8 0 12.7 20.2 26.4 68.6 55.7 189.3
08/05 08:10 19.3 33 5.47 2.6 32 41 1021.9 0 12.8 20.2 26.5 68.8 56.0 190.2
08/05 08:00 19.1 33 5.41 2.5 33 48 1021.8 0 12.6 20.1 26.3 68.4 55.4 188.3
08/05 07:50 18.6 34 5.41 2.4 35 44 1021.7 0 12.7 20.3 26.5 68.8 55.8 189.4
08/05 07:40 18.5 33 5.22 1.9 33 39 1021.8 0 12.3 20.0 25.9 67.2 53.8 182.3
08/05 07:30 18.3 33 5.16 1.8 35 48 1021.8 0 12.1 20.0 25.8 66.9 53.2 180.5
08/05 07:20 18 33 5.07 1.5 30 37 1021.7 0 12.0 19.9 25.6 66.3 52.4 177.6
08/05 07:10 17.8 34 5.16 1.7 32 39 1021.6 0 12.2 20.1 25.9 67.3 53.5 181.5
08/05 07:00 17.7 33 4.98 1.2 30 48 1021.5 0 11.8 19.9 25.3 65.7 51.6 174.8
08/05 06:50 17.4 33 4.89 1 33 41 1021.4 0 11.6 19.8 25.1 65.2 50.8 171.9
08/05 06:40 17.3 33 4.86 0.9 24 30 1021.2 0 11.5 19.8 25.1 65.0 50.6 170.9
08/05 06:30 17.3 33 4.86 0.9 32 46 1020.9 0 11.5 19.8 25.0 64.9 50.5 170.9
08/05 06:20 17.3 32 4.71 0.5 28 41 1020.9 0 11.2 19.6 24.5 63.6 48.9 165.1
08/05 06:10 17.4 32 4.74 0.6 32 37 1021 0 11.3 19.6 24.6 63.8 49.2 166.1
08/05 06:00 17.5 31 4.62 0.2 28 43 1021 0 11.0 19.4 24.2 62.7 47.8 161.3
08/05 05:50 17.8 30 4.55 0 32 37 1020.8 0 10.9 19.2 23.9 61.8 46.9 158.0
08/05 05:40 17.7 30 4.53 -0.1 24 28 1020.7 0 10.8 19.2 23.8 61.7 46.7 157.5
08/05 05:30 17.8 29 4.4 -0.5 32 46 1020.7 0 10.6 19.0 23.4 60.5 45.3 152.4
08/05 05:20 18 29 4.45 -0.3 39 46 1020.6 0 10.7 19.1 23.5 60.8 45.7 153.9
08/05 05:10 18.1 29 4.48 -0.2 32 43 1020.5 0 10.7 19.1 23.6 61.0 45.9 154.8
08/05 05:00 18.2 29 4.51 -0.1 32 46 1020.3 0 10.8 19.1 23.6 61.1 46.2 155.7
08/05 04:50 18.3 28 4.38 -0.5 30 41 1020.2 0 10.5 18.9 23.2 59.9 44.8 150.6
08/05 04:40 18.5 28 4.43 -0.3 33 43 1020.2 0 10.6 18.9 23.3 60.2 45.2 152.1
08/05 04:30 18.7 27 4.32 -0.7 30 48 1020.2 0 10.4 18.7 22.9 59.1 43.9 147.7
08/05 04:20 18.9 26 4.21 -1 37 43 1020.1 0 10.1 18.6 22.5 58.1 42.6 143.3
08/05 04:10 19 26 4.24 -0.9 37 46 1020 0 10.2 18.6 22.5 58.2 42.9 144.2
08/05 04:00 19.2 26 4.29 -0.7 33 44 1019.9 0 10.3 18.6 22.6 58.5 43.3 145.7
08/05 03:50 19.4 25 4.17 -1.1 33 43 1019.9 0 10.0 18.4 22.2 57.4 42.0 140.9
08/05 03:40 19.3 26 4.31 -0.7 37 44 1019.9 0 10.3 18.6 22.7 58.6 43.5 146.2
08/05 03:30 19.4 26 4.34 -0.6 32 44 1019.8 0 10.4 18.6 22.7 58.8 43.7 147.2
08/05 03:20 19.4 26 4.34 -0.6 33 41 1019.7 0 10.4 18.6 22.7 58.8 43.7 147.1
08/05 03:10 19.4 26 4.34 -0.6 28 39 1019.7 0 10.4 18.6 22.7 58.8 43.7 147.1
08/05 03:00 19.5 25 4.2 -1 35 44 1019.8 0 10.1 18.4 22.3 57.5 42.2 141.9
08/05 02:50 19.6 25 4.22 -0.9 32 41 1019.8 0 10.1 18.4 22.3 57.6 42.4 142.4
08/05 02:40 19.7 25 4.24 -0.9 22 30 1019.8 0 10.2 18.4 22.3 57.7 42.5 143.0
08/05 02:30 19.9 25 4.29 -0.7 28 41 1019.9 0 10.3 18.5 22.4 58.0 42.9 144.5
08/05 02:20 19.9 24 4.12 -1.2 26 35 1020 0 9.9 18.2 21.9 56.6 41.2 138.3
08/05 02:10 20.2 24 4.2 -1 33 39 1019.9 0 10.1 18.3 22.1 57.1 41.9 140.7
08/05 02:00 20.2 24 4.2 -1 28 43 1020 0 10.1 18.3 22.1 57.1 41.9 140.7
08/05 01:50 20.3 24 4.22 -0.9 24 33 1020.1 0 10.1 18.3 22.1 57.2 42.0 141.3
08/05 01:40 20.4 23 4.07 -1.4 30 39 1020.2 0 9.8 18.1 21.6 55.9 40.5 135.7
08/05 01:30 20.4 23 4.07 -1.4 30 44 1020.2 0 9.8 18.1 21.6 55.9 40.5 135.7
08/05 01:20 20.3 23 4.04 -1.5 26 32 1020.2 0 9.7 18.1 21.6 55.7 40.2 134.8
08/05 01:10 20.6 23 4.12 -1.2 32 41 1020.2 0 9.9 18.1 21.7 56.2 40.9 137.2
08/05 01:00 20.6 23 4.12 -1.2 26 43 1020.1 0 9.9 18.1 21.7 56.2 40.9 137.2
08/05 00:50 20.6 23 4.12 -1.2 30 35 1020.2 0 9.9 18.1 21.7 56.2 40.9 137.2
08/05 00:40 20.6 23 4.12 -1.2 32 37 1020.1 0 9.9 18.1 21.7 56.2 40.9 137.2
08/05 00:30 20.7 23 4.14 -1.1 32 44 1020.1 0 9.9 18.1 21.8 56.3 41.0 137.7
08/05 00:20 20.5 23 4.09 -1.3 30 37 1020.3 0 9.8 18.1 21.7 56.0 40.6 136.3
08/05 00:10 20.8 22 3.98 -1.7 32 35 1020.2 0 9.6 17.9 21.3 54.9 39.3 131.9
08/05 00:00 20.7 22 3.96 -1.8 26 41 1020.3 0 9.6 17.9 21.2 54.8 39.2 131.3
07/05 23:50 20.8 22 3.98 -1.7 30 37 1020.5 0 9.6 17.9 21.3 54.9 39.4 131.9
07/05 23:40 20.9 22 4.01 -1.6 28 35 1020.5 0 9.7 17.9 21.3 55.1 39.6 132.8
07/05 23:30 21 22 4.03 -1.5 28 35 1020.4 0 9.7 17.9 21.4 55.2 39.8 133.4
07/05 23:20 21 22 4.03 -1.5 26 32 1020.4 0 9.7 17.9 21.4 55.2 39.8 133.4
07/05 23:10 21 22 4.03 -1.5 26 30 1020.4 0 9.7 17.9 21.4 55.2 39.8 133.4
07/05 23:00 21.1 22 4.05 -1.4 30 41 1020.3 0 9.7 17.9 21.4 55.3 39.9 133.9
07/05 22:50 21.4 22 4.12 -1.2 33 44 1020.4 0 9.9 18.0 21.5 55.6 40.5 135.9
07/05 22:40 21.4 22 4.12 -1.2 24 28 1020.4 0 9.9 18.0 21.5 55.6 40.5 135.9
07/05 22:30 21.6 22 4.17 -1 28 46 1020.4 0 10.0 18.0 21.6 55.9 40.9 137.4
07/05 22:20 21.7 21 4.01 -1.6 24 32 1020.3 0 9.6 17.8 21.1 54.5 39.2 131.5
07/05 22:10 21.8 22 4.22 -0.8 32 39 1020.2 0 10.1 18.0 21.7 56.2 41.3 138.8
07/05 22:00 21.9 22 4.24 -0.8 28 43 1020 0 10.1 18.0 21.8 56.3 41.4 139.3
07/05 21:50 22 22 4.27 -0.7 28 35 1020 0 10.2 18.0 21.8 56.4 41.7 140.2
07/05 21:40 21.9 23 4.44 -0.1 28 33 1020 0 10.5 18.3 22.4 57.9 43.4 146.4
07/05 21:30 22 23 4.46 -0.1 24 33 1020 0 10.6 18.3 22.4 58.0 43.6 147.0
07/05 21:20 22.3 23 4.54 0.2 26 32 1019.9 0 10.7 18.3 22.6 58.4 44.2 149.3
07/05 21:10 22.4 23 4.57 0.3 30 37 1019.8 0 10.8 18.3 22.6 58.6 44.5 150.2
07/05 21:00 22.5 23 4.59 0.4 24 43 1019.7 0 10.8 18.3 22.7 58.7 44.6 150.7
07/05 20:50 22.6 23 4.62 0.4 30 35 1019.6 0 10.9 18.3 22.7 58.9 44.9 151.6
07/05 20:40 22.6 24 4.82 1 24 26 1019.6 0 11.3 18.6 23.3 60.5 46.9 158.8
07/05 20:30 22.8 23 4.67 0.6 24 37 1019.5 0 11.0 18.4 22.8 59.1 45.3 153.0
07/05 20:20 22.9 23 4.7 0.7 24 30 1019.4 0 11.0 18.4 22.9 59.3 45.5 153.9
07/05 20:10 22.9 24 4.9 1.3 24 32 1019.3 0 11.5 18.6 23.5 60.9 47.6 161.0
07/05 20:00 23.1 24 4.96 1.5 20 30 1019 0 11.6 18.7 23.6 61.3 48.0 162.8
07/05 19:50 23 24 4.93 1.4 22 26 1018.9 0 11.5 18.6 23.6 61.1 47.8 161.9
07/05 19:40 23.3 23 4.81 1 22 28 1018.8 0 11.3 18.4 23.1 59.9 46.4 157.0
07/05 19:30 23.4 23 4.84 1.1 22 35 1018.6 0 11.3 18.4 23.2 60.0 46.6 157.8
07/05 19:20 23.3 23 4.81 1 17 20 1018.6 0 11.3 18.4 23.1 59.9 46.4 157.0
07/05 19:10 23.6 23 4.89 1.3 30 35 1018.4 0 11.4 18.5 23.3 60.3 47.0 159.2
07/05 19:00 23.5 23 4.86 1.2 20 33 1018.3 0 11.4 18.4 23.2 60.1 46.8 158.3
07/05 18:50 23.7 22 4.71 0.7 26 32 1018.2 0 11.0 18.2 22.7 58.7 45.1 152.6
07/05 18:40 23.9 22 4.76 0.9 24 28 1018.1 0 11.1 18.2 22.8 59.0 45.5 154.0
07/05 18:30 23.9 22 4.76 0.9 22 39 1018.1 0 11.1 18.2 22.8 59.0 45.5 154.0
07/05 18:20 24 22 4.79 1 24 35 1017.9 0 11.2 18.2 22.8 59.1 45.8 154.9
07/05 18:10 24.2 21 4.62 0.5 20 26 1017.7 0 10.8 18.0 22.3 57.6 44.0 148.5
07/05 18:00 24.4 21 4.67 0.7 24 43 1017.6 0 10.9 18.0 22.3 57.9 44.3 149.9
07/05 17:50 24.6 21 4.73 0.8 19 22 1017.5 0 11.1 18.0 22.5 58.2 44.8 151.6
07/05 17:40 24.9 20 4.58 0.4 35 41 1017.2 0 10.7 17.8 21.9 56.8 43.2 145.8
07/05 17:30 25.3 20 4.68 0.8 30 37 1017.1 0 10.9 17.8 22.1 57.3 43.9 148.6
07/05 17:20 25.5 20 4.73 0.9 32 39 1016.9 0 11.0 17.9 22.2 57.6 44.3 149.9
07/05 17:10 25.8 20 4.82 1.2 24 32 1016.9 0 11.2 17.9 22.4 58.1 45.0 152.5
07/05 17:00 26.1 20 4.9 1.4 28 43 1016.8 0 11.4 17.9 22.6 58.5 45.7 154.7
07/05 16:50 26.4 19 4.73 0.9 20 26 1016.7 0 11.0 17.7 22.0 56.9 43.8 148.3

Last Refresh: 08-May-2026 11:03:38

Bureau of Meteorology